createdAt,value
2022-08-12T00:00:59.673Z,18.90
2022-08-12T00:04:04.880Z,18.80
2022-08-12T00:07:10.599Z,18.90
2022-08-12T00:10:15.892Z,18.90
2022-08-12T00:13:20.950Z,19.00
2022-08-12T00:16:26.219Z,18.90
2022-08-12T00:19:31.678Z,19.00
2022-08-12T00:22:37.425Z,19.00
2022-08-12T00:26:01.224Z,19.00
2022-08-12T00:29:08.783Z,19.00
2022-08-12T00:32:17.791Z,19.00
2022-08-12T00:35:39.029Z,19.00
2022-08-12T00:38:46.734Z,19.00
2022-08-12T00:41:52.674Z,18.90
2022-08-12T00:44:43.407Z,18.90
2022-08-12T00:47:30.808Z,18.80
2022-08-12T00:50:19.588Z,18.80
2022-08-12T00:53:07.219Z,18.90
2022-08-12T00:55:55.836Z,18.90
2022-08-12T00:58:47.278Z,18.80
2022-08-12T01:02:10.336Z,18.80
2022-08-12T01:05:02.340Z,18.80
2022-08-12T01:08:08.107Z,18.80
2022-08-12T01:11:14.044Z,18.80
2022-08-12T01:14:01.340Z,18.80
2022-08-12T01:16:51.068Z,18.70
2022-08-12T01:19:38.149Z,18.70
2022-08-12T01:22:31.140Z,18.70
2022-08-12T01:25:18.414Z,18.60
2022-08-12T01:28:06.346Z,18.60
2022-08-12T01:30:54.216Z,18.50
2022-08-12T01:33:50.568Z,18.50
2022-08-12T01:36:41.782Z,18.50
2022-08-12T01:40:31.436Z,18.50
2022-08-12T01:42:58.658Z,18.60
2022-08-12T01:46:01.157Z,18.50
2022-08-12T01:49:11.582Z,18.30
2022-08-12T01:52:20.416Z,18.20
2022-08-12T01:55:09.975Z,18.00
2022-08-12T01:58:15.534Z,17.90
2022-08-12T02:01:04.620Z,17.70
2022-08-12T02:04:10.173Z,17.70
2022-08-12T02:07:15.178Z,17.60
2022-08-12T02:10:51.285Z,17.40
2022-08-12T02:13:49.613Z,17.40
2022-08-12T02:16:56.561Z,17.30
2022-08-12T02:20:00.541Z,17.40
2022-08-12T02:22:47.639Z,17.40
2022-08-12T02:25:37.273Z,17.40
2022-08-12T02:28:24.884Z,17.40
2022-08-12T02:31:12.620Z,17.20
2022-08-12T02:33:59.785Z,17.10
2022-08-12T02:36:47.576Z,17.00
2022-08-12T02:39:36.054Z,16.90
2022-08-12T02:42:23.782Z,16.90
2022-08-12T02:45:11.983Z,17.00
2022-08-12T02:48:02.111Z,16.90
2022-08-12T02:50:50.996Z,16.80
2022-08-12T02:53:38.763Z,16.80
2022-08-12T02:56:28.876Z,16.90
2022-08-12T02:59:17.897Z,16.80
2022-08-12T03:02:04.769Z,16.90
2022-08-12T03:04:54.162Z,17.00
2022-08-12T03:07:59.813Z,17.00
2022-08-12T03:10:49.448Z,17.10
2022-08-12T03:13:40.042Z,17.10
2022-08-12T03:16:30.134Z,17.20
2022-08-12T03:19:24.766Z,17.20
2022-08-12T03:22:15.542Z,17.20
2022-08-12T03:25:05.471Z,17.20
2022-08-12T03:27:55.889Z,17.10
2022-08-12T03:30:43.322Z,17.10
2022-08-12T03:33:31.364Z,17.00
2022-08-12T03:36:20.513Z,16.90
2022-08-12T03:39:17.749Z,16.90
2022-08-12T03:42:08.977Z,16.90
2022-08-12T03:45:14.419Z,16.90
2022-08-12T03:48:28.414Z,16.90
2022-08-12T03:51:33.541Z,16.90
2022-08-12T03:54:42.531Z,16.80
2022-08-12T03:57:48.633Z,16.80
2022-08-12T04:00:37.681Z,16.70
2022-08-12T04:03:43.610Z,16.50
2022-08-12T04:06:34.550Z,16.50
2022-08-12T04:09:22.559Z,16.50
2022-08-12T04:12:32.267Z,16.50
2022-08-12T04:15:19.699Z,16.40
2022-08-12T04:18:07.973Z,16.40
2022-08-12T04:20:57.657Z,16.30
2022-08-12T04:23:48.356Z,16.40
2022-08-12T04:26:35.863Z,16.30
2022-08-12T04:29:23.046Z,16.10
2022-08-12T04:32:30.492Z,16.00
2022-08-12T04:35:17.172Z,15.90
2022-08-12T04:38:05.211Z,15.90
2022-08-12T04:40:52.117Z,16.00
2022-08-12T04:43:55.373Z,16.10
2022-08-12T04:46:45.509Z,16.10
2022-08-12T04:49:33.255Z,16.20
2022-08-12T04:52:19.990Z,16.20
2022-08-12T04:55:07.955Z,16.30
2022-08-12T04:57:55.225Z,16.20
2022-08-12T05:00:41.907Z,16.10
2022-08-12T05:03:28.574Z,16.00
2022-08-12T05:06:33.146Z,16.00
2022-08-12T05:09:19.885Z,15.90
2022-08-12T05:12:08.907Z,15.90
2022-08-12T05:14:55.926Z,15.90
2022-08-12T05:17:43.091Z,15.90
2022-08-12T05:20:30.887Z,15.90
2022-08-12T05:23:18.735Z,15.90
2022-08-12T05:26:06.232Z,15.90
2022-08-12T05:28:54.137Z,15.90
2022-08-12T05:31:47.651Z,16.10
2022-08-12T05:34:35.295Z,16.30
2022-08-12T05:37:22.676Z,16.50
2022-08-12T05:40:11.506Z,16.60
2022-08-12T05:42:58.449Z,16.70
2022-08-12T05:45:45.924Z,16.80
2022-08-12T05:48:33.049Z,17.00
2022-08-12T05:51:20.192Z,17.10
2022-08-12T05:54:07.017Z,17.30
2022-08-12T05:56:53.808Z,17.40
2022-08-12T05:59:41.824Z,17.50
2022-08-12T06:02:28.508Z,17.70
2022-08-12T06:05:15.372Z,17.80
2022-08-12T06:08:03.336Z,17.90
2022-08-12T06:10:50.604Z,18.10
2022-08-12T06:13:53.761Z,18.20
2022-08-12T06:16:41.478Z,18.30
2022-08-12T06:20:28.139Z,18.40
2022-08-12T06:22:39.460Z,18.50
2022-08-12T06:25:29.203Z,18.60
2022-08-12T06:28:17.698Z,18.60
2022-08-12T06:35:27.286Z,18.80
2022-08-12T06:37:21.243Z,18.90
2022-08-12T06:40:12.723Z,18.90
2022-08-12T06:42:59.472Z,19.00
2022-08-12T06:45:47.302Z,19.10
2022-08-12T06:48:34.187Z,19.10
2022-08-12T06:51:21.968Z,19.20
2022-08-12T06:54:11.356Z,19.30
2022-08-12T06:58:08.089Z,19.40
2022-08-12T07:00:05.094Z,19.40
2022-08-12T07:02:52.645Z,19.60
2022-08-12T07:05:39.277Z,19.60
2022-08-12T07:08:30.495Z,19.70
2022-08-12T07:11:17.206Z,19.80
2022-08-12T07:14:12.676Z,19.90
2022-08-12T07:17:02.350Z,19.90
2022-08-12T07:19:50.033Z,20.00
2022-08-12T07:22:37.508Z,20.10
2022-08-12T07:25:40.978Z,20.20
2022-08-12T07:28:30.826Z,20.30
2022-08-12T07:31:18.455Z,20.40
2022-08-12T07:34:05.647Z,20.40
2022-08-12T07:36:52.583Z,20.50
2022-08-12T07:39:51.374Z,20.60
2022-08-12T07:42:46.185Z,20.60
2022-08-12T07:45:32.856Z,20.70
2022-08-12T07:48:20.178Z,20.70
2022-08-12T07:51:07.166Z,20.80
2022-08-12T07:54:00.019Z,20.90
2022-08-12T07:56:47.546Z,20.90
2022-08-12T07:59:35.874Z,21.00
2022-08-12T08:02:26.689Z,21.10
2022-08-12T08:05:16.214Z,21.20
2022-08-12T08:08:12.465Z,21.20
2022-08-12T08:11:19.104Z,21.30
2022-08-12T08:14:08.626Z,21.40
2022-08-12T08:16:57.005Z,21.50
2022-08-12T08:20:00.250Z,21.60
2022-08-12T08:22:50.442Z,21.60
2022-08-12T08:25:38.887Z,21.70
2022-08-12T08:28:25.571Z,21.70
2022-08-12T08:31:14.272Z,21.80
2022-08-12T08:34:47.388Z,21.80
2022-08-12T08:37:10.743Z,21.90
2022-08-12T08:40:22.242Z,22.00
2022-08-12T08:43:08.931Z,22.10
2022-08-12T08:46:00.582Z,22.20
2022-08-12T08:48:47.343Z,22.30
2022-08-12T08:51:34.364Z,22.40
2022-08-12T08:54:21.030Z,22.50
2022-08-12T08:57:10.854Z,22.50
2022-08-12T08:59:59.699Z,22.60
2022-08-12T09:02:49.355Z,22.70
2022-08-12T09:06:02.102Z,22.80
2022-08-12T09:08:50.147Z,22.80
2022-08-12T09:12:11.505Z,22.90
2022-08-12T09:14:59.011Z,22.90
2022-08-12T09:17:57.013Z,23.00
2022-08-12T09:20:44.703Z,23.10
2022-08-12T09:23:58.906Z,23.20
2022-08-12T09:26:46.381Z,23.20
2022-08-12T09:30:08.647Z,23.30
2022-08-12T09:33:04.120Z,23.30
2022-08-12T09:36:03.338Z,23.40
2022-08-12T09:38:58.779Z,23.60
2022-08-12T09:42:40.464Z,23.60
2022-08-12T09:46:06.037Z,23.70
2022-08-12T09:48:35.034Z,23.70
2022-08-12T09:51:22.849Z,23.80
2022-08-12T09:54:33.489Z,23.90
2022-08-12T09:58:44.952Z,24.00
2022-08-12T10:00:35.213Z,24.10
2022-08-12T10:03:31.737Z,24.30
2022-08-12T10:06:31.927Z,24.40
2022-08-12T10:09:23.087Z,24.50
2022-08-12T10:12:33.716Z,24.60
2022-08-12T10:16:02.122Z,24.60
2022-08-12T10:18:32.278Z,24.60
2022-08-12T10:21:23.848Z,24.70
2022-08-12T10:24:11.852Z,24.80
2022-08-12T10:27:17.431Z,24.90
2022-08-12T10:30:04.158Z,25.00
2022-08-12T10:33:17.889Z,25.00
2022-08-12T10:36:06.121Z,25.10
2022-08-12T10:38:56.487Z,25.20
2022-08-12T10:42:01.975Z,25.30
2022-08-12T10:44:49.001Z,25.40
2022-08-12T10:48:15.992Z,25.40
2022-08-12T10:50:58.646Z,25.60
2022-08-12T10:53:50.600Z,25.70
2022-08-12T10:56:41.737Z,25.80
2022-08-12T11:00:01.395Z,26.00
2022-08-12T11:04:27.484Z,26.00
2022-08-12T11:07:07.812Z,26.20
2022-08-12T11:09:07.223Z,26.40
2022-08-12T11:12:35.291Z,26.60
2022-08-12T11:15:19.320Z,26.70
2022-08-12T11:18:07.763Z,27.00
2022-08-12T11:20:59.581Z,27.20
2022-08-12T11:23:46.295Z,27.40
2022-08-12T11:26:40.419Z,27.70
2022-08-12T11:29:28.035Z,28.00
2022-08-12T11:32:38.840Z,27.90
2022-08-12T11:35:27.798Z,28.10
2022-08-12T11:38:16.396Z,28.50
2022-08-12T11:41:07.051Z,29.40
2022-08-12T11:43:58.912Z,30.60
2022-08-12T11:46:46.698Z,32.80
2022-08-12T11:49:39.386Z,36.10
2022-08-12T11:52:53.882Z,40.30
2022-08-12T11:55:33.150Z,44.60
2022-08-12T11:59:22.069Z,48.60
2022-08-12T12:01:58.957Z,51.40
2022-08-12T12:04:34.405Z,53.60
2022-08-12T12:07:22.603Z,55.50
2022-08-12T12:10:10.176Z,56.10
2022-08-12T12:12:57.816Z,57.00
2022-08-12T12:15:44.576Z,57.60
2022-08-12T12:18:34.957Z,57.90
2022-08-12T12:21:47.047Z,58.40
2022-08-12T12:24:28.318Z,58.90
2022-08-12T12:27:19.231Z,59.40
2022-08-12T12:30:18.745Z,59.40
2022-08-12T12:33:17.820Z,59.20
2022-08-12T12:36:20.813Z,58.30
2022-08-12T12:39:11.070Z,57.40
2022-08-12T12:42:52.105Z,56.50
2022-08-12T12:45:19.663Z,56.00
2022-08-12T12:48:10.935Z,55.10
2022-08-12T12:51:49.208Z,54.10
2022-08-12T12:54:28.882Z,53.20
2022-08-12T12:57:16.844Z,51.20
2022-08-12T13:00:20.788Z,49.20
2022-08-12T13:03:08.001Z,47.10
2022-08-12T13:06:06.036Z,45.00
2022-08-12T13:08:54.196Z,42.90
2022-08-12T13:11:41.874Z,41.50
2022-08-12T13:14:33.193Z,40.10
2022-08-12T13:17:21.959Z,38.80
2022-08-12T13:20:10.407Z,37.70
2022-08-12T13:22:57.565Z,37.00
2022-08-12T13:25:44.238Z,36.40
2022-08-12T13:28:31.769Z,36.00
2022-08-12T13:31:20.100Z,35.60
2022-08-12T13:34:33.244Z,35.10
2022-08-12T13:37:17.638Z,34.30
2022-08-12T13:40:04.538Z,33.30
2022-08-12T13:42:52.888Z,32.40
2022-08-12T13:45:41.791Z,32.10
2022-08-12T13:48:29.963Z,32.10
2022-08-12T13:51:24.556Z,32.20
2022-08-12T13:54:11.770Z,32.40
2022-08-12T13:57:00.893Z,32.60
2022-08-12T13:59:48.209Z,32.90
2022-08-12T14:02:37.770Z,33.10
2022-08-12T14:05:31.257Z,33.20
2022-08-12T14:08:25.178Z,33.30
2022-08-12T14:11:12.620Z,33.40
2022-08-12T14:14:05.211Z,33.10
2022-08-12T14:17:02.391Z,32.70
2022-08-12T14:20:10.834Z,32.10
2022-08-12T14:22:59.946Z,31.80
2022-08-12T14:26:12.108Z,31.90
2022-08-12T14:29:01.824Z,32.30
2022-08-12T14:31:53.275Z,32.60
2022-08-12T14:34:40.203Z,32.50
2022-08-12T14:37:55.538Z,32.20
2022-08-12T14:40:40.134Z,31.70
2022-08-12T14:43:31.570Z,31.40
2022-08-12T14:46:30.826Z,31.50
2022-08-12T14:50:01.193Z,31.50
2022-08-12T14:52:55.673Z,31.40
2022-08-12T14:59:23.704Z,31.40
2022-08-12T15:02:10.469Z,31.30
2022-08-12T15:04:59.772Z,31.30
2022-08-12T15:07:50.881Z,31.50
2022-08-12T15:10:53.805Z,31.70
2022-08-12T15:13:45.621Z,31.90
2022-08-12T15:16:32.465Z,31.90
2022-08-12T15:20:11.592Z,31.90
2022-08-12T15:22:36.973Z,31.90
2022-08-12T15:25:30.404Z,31.70
2022-08-12T15:28:28.663Z,31.10
2022-08-12T15:31:27.892Z,30.60
2022-08-12T15:34:22.904Z,30.30
2022-08-12T15:37:10.859Z,30.30
2022-08-12T15:40:04.391Z,30.40
2022-08-12T15:42:51.741Z,30.30
2022-08-12T15:45:39.430Z,30.00
2022-08-12T15:48:26.522Z,29.90
2022-08-12T15:51:59.093Z,29.80
2022-08-12T15:54:44.877Z,29.90
2022-08-12T15:57:33.283Z,30.30
2022-08-12T16:00:33.165Z,30.50
2022-08-12T16:03:25.904Z,30.70
2022-08-12T16:06:22.615Z,30.80
2022-08-12T16:09:45.263Z,30.80
2022-08-12T16:12:32.648Z,30.40
2022-08-12T16:15:22.210Z,30.30
2022-08-12T16:18:18.730Z,30.40
2022-08-12T16:21:09.134Z,30.50
2022-08-12T16:23:58.111Z,30.60
2022-08-12T16:26:50.954Z,30.70
2022-08-12T16:29:53.366Z,30.80
2022-08-12T16:32:40.983Z,30.90
2022-08-12T16:35:33.166Z,30.70
2022-08-12T16:38:28.363Z,30.50
2022-08-12T16:41:15.612Z,30.00
2022-08-12T16:44:04.500Z,29.60
2022-08-12T16:46:57.486Z,29.20
2022-08-12T16:49:44.918Z,28.90
2022-08-12T16:52:31.600Z,28.80
2022-08-12T16:55:18.714Z,28.80
2022-08-12T16:58:28.208Z,28.90
2022-08-12T17:01:19.625Z,29.00
2022-08-12T17:04:09.616Z,29.10
2022-08-12T17:06:56.266Z,29.30
2022-08-12T17:09:45.595Z,29.40
2022-08-12T17:12:32.292Z,29.50
2022-08-12T17:15:25.712Z,29.50
2022-08-12T17:18:43.400Z,29.50
2022-08-12T17:21:41.831Z,29.40
2022-08-12T17:24:54.575Z,29.20
2022-08-12T17:27:47.264Z,29.00
2022-08-12T17:30:44.279Z,28.80
2022-08-12T17:33:33.542Z,28.70
2022-08-12T17:36:23.691Z,28.40
2022-08-12T17:39:12.768Z,28.10
2022-08-12T17:42:00.550Z,27.80
2022-08-12T17:44:50.647Z,27.60
2022-08-12T17:47:38.770Z,27.40
2022-08-12T17:50:28.567Z,27.20
2022-08-12T17:53:16.495Z,27.10
2022-08-12T17:56:05.439Z,27.10
2022-08-12T17:58:58.364Z,27.00
2022-08-12T18:01:46.240Z,26.90
2022-08-12T18:04:35.986Z,26.90
2022-08-12T18:07:23.765Z,26.80
2022-08-12T18:10:35.738Z,26.80
2022-08-12T18:13:37.765Z,26.60
2022-08-12T18:16:29.012Z,26.50
2022-08-12T18:19:15.858Z,26.30
2022-08-12T18:22:03.076Z,26.20
2022-08-12T18:24:50.550Z,26.10
2022-08-12T18:28:12.301Z,26.00
2022-08-12T18:31:03.155Z,25.90
2022-08-12T18:33:52.323Z,25.80
2022-08-12T18:36:40.014Z,25.70
2022-08-12T18:39:55.262Z,25.60
2022-08-12T18:42:46.811Z,25.50
2022-08-12T18:45:46.893Z,25.30
2022-08-12T18:48:43.777Z,25.10
2022-08-12T18:51:34.278Z,25.00
2022-08-12T18:54:41.552Z,24.90
2022-08-12T18:58:06.491Z,24.70
2022-08-12T19:00:47.519Z,24.50
2022-08-12T19:03:39.505Z,24.40
2022-08-12T19:06:35.649Z,24.30
2022-08-12T19:09:56.659Z,24.20
2022-08-12T19:13:00.771Z,24.10
2022-08-12T19:15:47.464Z,23.90
2022-08-12T19:18:38.423Z,23.80
2022-08-12T19:21:27.652Z,23.70
2022-08-12T19:24:32.962Z,23.60
2022-08-12T19:27:21.403Z,23.50
2022-08-12T19:30:09.037Z,23.50
2022-08-12T19:32:56.004Z,23.40
2022-08-12T19:36:00.869Z,23.30
2022-08-12T19:38:56.647Z,23.30
2022-08-12T19:42:00.857Z,23.20
2022-08-12T19:44:50.580Z,23.10
2022-08-12T19:47:39.356Z,23.10
2022-08-12T19:50:26.066Z,22.90
2022-08-12T19:53:13.579Z,22.90
2022-08-12T19:56:05.550Z,22.90
2022-08-12T19:58:52.374Z,22.80
2022-08-12T20:02:01.670Z,22.70
2022-08-12T20:05:25.568Z,22.60
2022-08-12T20:07:59.421Z,22.60
2022-08-12T20:10:47.131Z,22.60
2022-08-12T20:13:38.074Z,22.50
2022-08-12T20:16:52.218Z,22.50
2022-08-12T20:20:05.565Z,22.40
2022-08-12T20:22:46.153Z,22.40
2022-08-12T20:25:57.253Z,22.30
2022-08-12T20:28:42.278Z,22.30
2022-08-12T20:31:31.544Z,22.20
2022-08-12T20:34:18.948Z,22.10
2022-08-12T20:37:06.477Z,22.10
2022-08-12T20:40:02.832Z,22.10
2022-08-12T20:42:53.586Z,21.90
2022-08-12T20:45:50.810Z,21.90
2022-08-12T20:48:44.302Z,21.80
2022-08-12T20:51:50.857Z,21.70
2022-08-12T20:54:40.323Z,21.60
2022-08-12T20:57:37.454Z,21.40
2022-08-12T21:00:28.082Z,21.30
2022-08-12T21:03:33.812Z,21.20
2022-08-12T21:06:40.510Z,21.10
2022-08-12T21:09:28.912Z,21.00
2022-08-12T21:12:27.384Z,20.90
2022-08-12T21:15:23.057Z,20.90
2022-08-12T21:18:28.679Z,20.80
2022-08-12T21:21:23.605Z,20.80
2022-08-12T21:24:11.438Z,20.60
2022-08-12T21:27:03.377Z,20.50
2022-08-12T21:29:55.112Z,20.40
2022-08-12T21:32:44.777Z,20.40
2022-08-12T21:35:35.746Z,20.40
2022-08-12T21:38:26.367Z,20.30
2022-08-12T21:41:21.678Z,20.30
2022-08-12T21:44:32.502Z,20.20
2022-08-12T21:47:22.503Z,20.10
2022-08-12T21:50:09.388Z,20.10
2022-08-12T21:52:57.594Z,20.10
2022-08-12T21:55:45.411Z,20.10
2022-08-12T21:58:32.067Z,20.10
2022-08-12T22:01:22.899Z,20.20
2022-08-12T22:04:28.468Z,20.10
2022-08-12T22:07:18.745Z,20.10
2022-08-12T22:10:06.223Z,19.90
2022-08-12T22:13:01.135Z,19.90
2022-08-12T22:15:52.541Z,19.80
2022-08-12T22:18:44.308Z,19.80
2022-08-12T22:21:37.874Z,19.80
2022-08-12T22:24:35.268Z,19.80
2022-08-12T22:27:32.507Z,19.80
2022-08-12T22:30:39.255Z,19.70
2022-08-12T22:33:25.946Z,19.70
2022-08-12T22:36:16.858Z,19.70
2022-08-12T22:39:08.761Z,19.70
2022-08-12T22:42:14.970Z,19.70
2022-08-12T22:45:25.122Z,19.70
2022-08-12T22:48:16.651Z,19.70
2022-08-12T22:51:13.489Z,19.60
2022-08-12T22:54:00.943Z,19.60
2022-08-12T22:56:48.848Z,19.50
2022-08-12T22:59:51.391Z,19.50
2022-08-12T23:02:42.830Z,19.50
2022-08-12T23:05:37.026Z,19.50
2022-08-12T23:08:42.040Z,19.30
2022-08-12T23:11:33.751Z,19.20
2022-08-12T23:14:28.402Z,19.10
2022-08-12T23:17:35.286Z,19.00
2022-08-12T23:20:27.043Z,19.00
2022-08-12T23:23:17.195Z,19.00
2022-08-12T23:26:06.684Z,19.00
2022-08-12T23:29:29.420Z,19.00
2022-08-12T23:32:36.684Z,19.00
2022-08-12T23:35:45.738Z,19.00
2022-08-12T23:38:42.187Z,18.90
2022-08-12T23:41:29.408Z,18.90
2022-08-12T23:44:38.737Z,19.00
2022-08-12T23:47:25.437Z,18.90
2022-08-12T23:50:16.615Z,18.90
2022-08-12T23:53:06.391Z,18.90
2022-08-12T23:56:00.775Z,18.80
2022-08-12T23:58:52.545Z,18.80
